Pena Blanca, New Mexico
Current Conditions -  °F | °C
As of 10:53 AM on Tuesday 21 Oct 2014 (Local Time) from KSAF Reporting Station
Overcast Overcast  
Wind Chill: 56°   Ceiling: 4600
Heat Index: 56°   Visibility: 10mi
Dew Point: 47°   Wind: 6mph
Humidity: 72%   Direction: NA
Pressure: 30.21"   Gusts: NA
Location:  35.57°N, 106.34°W
Report Text: KSAF 211653Z VRB05KT 10SM FEW019 BKN046 OVC080 13/08 A3021 RMK AO2 SLP167 T01330083
Loading
Personal Weather Stations






























Interactive Weather Map
Tropical Storm Tracking
New forecast layout! Learn more

10-Day Weather Forecast

Advertisements
Track Severe Weather on mobile